Time,TemperatureF,DewpointF,PressureIn,WindDirection,WindDirectionDegrees,WindSpeedMPH,WindSpeedGustMPH,Humidity,HourlyPrecipIn,Conditions,Clouds,dailyrainin,SolarRadiationWatts/m^2,SoftwareType,DateUTC
2013-06-29 00:08:00,52.2,38.0,29.70,ESE,103,5.0,10.0,60,0.00,,,0.02,0,weatherlink.com 1.10,2013-06-29 06:08:00,
2013-06-29 00:23:00,52.4,39.0,29.72,East,98,7.0,8.0,61,0.00,,,0.00,0,weatherlink.com 1.10,2013-06-29 06:23:00,
2013-06-29 00:38:00,53.0,40.0,29.72,East,80,7.0,11.0,61,0.00,,,0.00,0,weatherlink.com 1.10,2013-06-29 06:38:00,
2013-06-29 01:08:00,52.3,39.0,29.70,East,98,10.0,14.0,61,0.00,,,0.00,0,weatherlink.com 1.10,2013-06-29 07:08:00,
2013-06-29 01:23:00,51.4,39.0,29.70,East,101,6.0,11.0,64,0.00,,,0.00,0,weatherlink.com 1.10,2013-06-29 07:23:00,
2013-06-29 01:38:00,50.7,40.0,29.70,East,96,5.0,9.0,67,0.00,,,0.00,0,weatherlink.com 1.10,2013-06-29 07:38:00,
2013-06-29 01:53:00,50.0,40.0,29.69,ESE,113,9.0,10.0,69,0.00,,,0.00,0,weatherlink.com 1.10,2013-06-29 07:53:00,
2013-06-29 02:08:00,50.0,40.0,29.69,ESE,118,2.0,8.0,68,0.00,,,0.00,0,weatherlink.com 1.10,2013-06-29 08:08:00,
2013-06-29 02:23:00,50.2,40.0,29.69,SE,126,0.0,3.0,67,0.00,,,0.00,0,weatherlink.com 1.10,2013-06-29 08:23:00,
2013-06-29 02:39:00,49.3,39.0,29.69,SW,225,0.0,4.0,69,0.00,,,0.00,0,weatherlink.com 1.10,2013-06-29 08:39:00,
2013-06-29 02:54:00,48.8,39.0,29.69,SSE,147,0.0,4.0,69,0.00,,,0.00,0,weatherlink.com 1.10,2013-06-29 08:54:00,
2013-06-29 03:09:00,47.4,38.0,29.68,South,170,3.0,3.0,70,0.00,,,0.00,0,weatherlink.com 1.10,2013-06-29 09:09:00,
2013-06-29 03:24:00,46.2,39.0,29.68,SSE,153,0.0,3.0,75,0.00,,,0.00,0,weatherlink.com 1.10,2013-06-29 09:24:00,
2013-06-29 03:39:00,45.9,39.0,29.68,SSE,153,0.0,0.0,76,0.00,,,0.00,0,weatherlink.com 1.10,2013-06-29 09:39:00,
2013-06-29 03:54:00,45.9,39.0,29.68,SSE,153,0.0,0.0,76,0.00,,,0.00,0,weatherlink.com 1.10,2013-06-29 09:54:00,
2013-06-29 04:09:00,45.6,40.0,29.68,SSE,153,0.0,0.0,80,0.00,,,0.00,0,weatherlink.com 1.10,2013-06-29 10:09:00,
2013-06-29 04:24:00,44.8,39.0,29.68,SSE,153,0.0,0.0,80,0.00,,,0.00,0,weatherlink.com 1.10,2013-06-29 10:24:00,
2013-06-29 04:39:00,45.1,40.0,29.68,SSE,153,0.0,1.0,81,0.00,,,0.00,0,weatherlink.com 1.10,2013-06-29 10:39:00,
2013-06-29 04:54:00,45.8,42.0,29.68,SSE,153,0.0,0.0,86,0.00,,,0.00,0,weatherlink.com 1.10,2013-06-29 10:54:00,
2013-06-29 05:09:00,45.7,42.0,29.68,SSE,153,0.0,0.0,85,0.00,,,0.00,0,weatherlink.com 1.10,2013-06-29 11:09:00,
2013-06-29 05:24:00,44.5,41.0,29.67,SSE,153,0.0,1.0,87,0.00,,,0.00,0,weatherlink.com 1.10,2013-06-29 11:24:00,
2013-06-29 05:39:00,45.4,41.0,29.67,SSE,153,0.0,2.0,83,0.00,,,0.00,0,weatherlink.com 1.10,2013-06-29 11:39:00,
2013-06-29 05:54:00,44.6,40.0,29.66,SSE,153,0.0,0.0,84,0.00,,,0.00,12,weatherlink.com 1.10,2013-06-29 11:54:00,
2013-06-29 06:09:00,44.7,40.0,29.66,SSE,153,0.0,0.0,83,0.00,,,0.00,23,weatherlink.com 1.10,2013-06-29 12:09:00,
2013-06-29 06:24:00,45.9,40.0,29.66,SSE,153,0.0,2.0,79,0.00,,,0.00,44,weatherlink.com 1.10,2013-06-29 12:24:00,
2013-06-29 06:39:00,47.9,40.0,29.67,SSE,153,0.0,1.0,73,0.00,,,0.00,46,weatherlink.com 1.10,2013-06-29 12:39:00,
2013-06-29 06:54:00,48.8,41.0,29.67,SSE,153,0.0,0.0,74,0.00,,,0.00,46,weatherlink.com 1.10,2013-06-29 12:54:00,
2013-06-29 07:09:00,48.7,40.0,29.68,SSE,153,0.0,2.0,73,0.00,,,0.00,18,weatherlink.com 1.10,2013-06-29 13:09:00,
2013-06-29 07:24:00,48.1,41.0,29.68,SE,138,5.0,6.0,75,0.00,,,0.00,14,weatherlink.com 1.10,2013-06-29 13:24:00,
2013-06-29 07:39:00,49.8,41.0,29.68,ESE,119,3.0,7.0,71,0.00,,,0.00,35,weatherlink.com 1.10,2013-06-29 13:39:00,
2013-06-29 07:54:00,55.0,40.0,29.67,SE,142,6.0,11.0,58,0.00,,,0.00,156,weatherlink.com 1.10,2013-06-29 13:54:00,
2013-06-29 08:09:00,59.7,40.0,29.67,South,180,3.0,7.0,49,0.00,,,0.00,469,weatherlink.com 1.10,2013-06-29 14:09:00,
2013-06-29 08:24:00,60.7,40.0,29.67,South,173,2.0,3.0,47,0.00,,,0.00,483,weatherlink.com 1.10,2013-06-29 14:24:00,
2013-06-29 08:39:00,63.6,45.0,29.67,West,263,2.0,5.0,51,0.00,,,0.00,494,weatherlink.com 1.10,2013-06-29 14:39:00,
2013-06-29 08:54:00,62.7,46.0,29.66,West,271,0.0,4.0,54,0.00,,,0.00,524,weatherlink.com 1.10,2013-06-29 14:54:00,
2013-06-29 09:09:00,64.5,42.0,29.66,WNW,290,2.0,5.0,44,0.00,,,0.00,573,weatherlink.com 1.10,2013-06-29 15:09:00,
2013-06-29 09:25:00,66.9,40.0,29.66,West,273,2.0,11.0,37,0.00,,,0.00,638,weatherlink.com 1.10,2013-06-29 15:25:00,
2013-06-29 09:40:00,67.8,39.0,29.66,WNW,296,2.0,9.0,35,0.00,,,0.00,691,weatherlink.com 1.10,2013-06-29 15:40:00,
2013-06-29 09:55:00,68.7,38.0,29.66,WNW,288,2.0,7.0,33,0.00,,,0.00,724,weatherlink.com 1.10,2013-06-29 15:55:00,
2013-06-29 10:10:00,69.7,43.0,29.66,NW,310,4.0,10.0,38,0.00,,,0.00,775,weatherlink.com 1.10,2013-06-29 16:10:00,
2013-06-29 10:25:00,71.0,44.0,29.66,NNW,327,1.0,5.0,38,0.00,,,0.00,645,weatherlink.com 1.10,2013-06-29 16:25:00,
2013-06-29 10:40:00,70.4,37.0,29.65,West,268,0.0,5.0,30,0.00,,,0.00,807,weatherlink.com 1.10,2013-06-29 16:40:00,
2013-06-29 10:55:00,70.2,39.0,29.64,NW,313,2.0,4.0,32,0.00,,,0.00,1093,weatherlink.com 1.10,2013-06-29 16:55:00,
2013-06-29 11:10:00,71.8,39.0,29.64,WSW,237,5.0,8.0,30,0.00,,,0.00,404,weatherlink.com 1.10,2013-06-29 17:10:00,
2013-06-29 11:25:00,72.2,38.0,29.65,WNW,302,6.0,7.0,29,0.00,,,0.00,452,weatherlink.com 1.10,2013-06-29 17:25:00,
2013-06-29 11:40:00,73.5,37.0,29.64,NW,322,1.0,8.0,27,0.00,,,0.00,1014,weatherlink.com 1.10,2013-06-29 17:40:00,
2013-06-29 11:55:00,75.7,36.0,29.63,SW,219,0.0,7.0,24,0.00,,,0.00,550,weatherlink.com 1.10,2013-06-29 17:55:00,
2013-06-29 12:10:00,74.6,36.0,29.62,WSW,251,0.0,5.0,25,0.00,,,0.00,113,weatherlink.com 1.10,2013-06-29 18:10:00,
2013-06-29 12:25:00,71.6,36.0,29.62,West,279,1.0,3.0,27,0.00,,,0.00,28,weatherlink.com 1.10,2013-06-29 18:25:00,
2013-06-29 12:40:00,62.9,39.0,29.67,NE,51,7.0,27.0,42,0.01,,,0.01,9,weatherlink.com 1.10,2013-06-29 18:40:00,
2013-06-29 12:55:00,49.8,40.0,29.65,ESE,102,10.0,22.0,70,0.13,,,0.13,28,weatherlink.com 1.10,2013-06-29 18:55:00,
2013-06-29 13:10:00,48.5,42.0,29.64,ESE,102,8.0,11.0,78,0.13,,,0.13,132,weatherlink.com 1.10,2013-06-29 19:10:00,
2013-06-29 13:25:00,50.1,43.0,29.65,East,97,7.0,11.0,77,0.13,,,0.13,69,weatherlink.com 1.10,2013-06-29 19:25:00,
2013-06-29 13:40:00,50.8,44.0,29.65,ESE,111,5.0,10.0,76,0.11,,,0.13,81,weatherlink.com 1.10,2013-06-29 19:40:00,
2013-06-29 13:55:00,52.3,44.0,29.66,ESE,115,4.0,10.0,72,0.01,,,0.14,88,weatherlink.com 1.10,2013-06-29 19:55:00,
2013-06-29 14:10:00,54.6,43.0,29.65,ESE,108,4.0,7.0,65,0.01,,,0.14,244,weatherlink.com 1.10,2013-06-29 20:10:00,
2013-06-29 14:25:00,56.2,45.0,29.65,SE,124,5.0,10.0,67,0.01,,,0.14,211,weatherlink.com 1.10,2013-06-29 20:25:00,
2013-06-29 14:40:00,57.5,41.0,29.66,SE,145,4.0,11.0,54,0.01,,,0.14,155,weatherlink.com 1.10,2013-06-29 20:40:00,
2013-06-29 14:55:00,57.8,42.0,29.67,SSE,153,3.0,5.0,56,0.00,,,0.14,88,weatherlink.com 1.10,2013-06-29 20:55:00,
2013-06-29 15:10:00,57.2,44.0,29.70,ENE,57,9.0,12.0,62,0.00,,,0.14,30,weatherlink.com 1.10,2013-06-29 21:10:00,
2013-06-29 15:25:00,55.4,41.0,29.73,ESE,102,5.0,16.0,58,0.00,,,0.14,26,weatherlink.com 1.10,2013-06-29 21:25:00,
2013-06-29 15:40:00,51.1,42.0,29.69,SE,132,11.0,23.0,72,0.03,,,0.17,25,weatherlink.com 1.10,2013-06-29 21:40:00,
2013-06-29 15:55:00,50.2,43.0,29.71,ESE,104,16.0,26.0,76,0.03,,,0.17,91,weatherlink.com 1.10,2013-06-29 21:55:00,
2013-06-29 16:10:00,51.3,43.0,29.72,ESE,109,12.0,18.0,72,0.03,,,0.17,181,weatherlink.com 1.10,2013-06-29 22:10:00,
2013-06-29 16:25:00,51.8,44.0,29.74,East,90,15.0,17.0,76,0.03,,,0.17,146,weatherlink.com 1.10,2013-06-29 22:25:00,
2013-06-29 16:40:00,53.4,43.0,29.74,East,95,5.0,11.0,68,0.00,,,0.17,274,weatherlink.com 1.10,2013-06-29 22:40:00,
2013-06-29 16:55:00,56.4,44.0,29.73,SE,140,7.0,10.0,63,0.00,,,0.17,381,weatherlink.com 1.10,2013-06-29 22:55:00,
2013-06-29 17:10:00,57.2,42.0,29.72,ESE,109,5.0,10.0,58,0.00,,,0.17,329,weatherlink.com 1.10,2013-06-29 23:10:00,
2013-06-29 17:25:00,57.9,42.0,29.71,ESE,116,1.0,8.0,55,0.00,,,0.17,156,weatherlink.com 1.10,2013-06-29 23:25:00,
2013-06-29 17:40:00,58.5,41.0,29.71,SSW,208,0.0,4.0,53,0.00,,,0.17,169,weatherlink.com 1.10,2013-06-29 23:40:00,
2013-06-29 17:55:00,58.8,44.0,29.71,West,277,4.0,4.0,58,0.00,,,0.17,141,weatherlink.com 1.10,2013-06-29 23:55:00,
2013-06-29 18:10:00,59.3,44.0,29.71,WNW,294,3.0,9.0,58,0.00,,,0.17,243,weatherlink.com 1.10,2013-06-30 00:10:00,
2013-06-29 18:25:00,58.1,43.0,29.71,West,267,5.0,8.0,57,0.00,,,0.17,95,weatherlink.com 1.10,2013-06-30 00:25:00,
2013-06-29 18:40:00,56.7,43.0,29.71,NNW,328,3.0,8.0,61,0.00,,,0.17,79,weatherlink.com 1.10,2013-06-30 00:40:00,
2013-06-29 18:55:00,56.0,43.0,29.71,West,260,3.0,7.0,61,0.00,,,0.17,76,weatherlink.com 1.10,2013-06-30 00:55:00,
2013-06-29 19:10:00,55.6,44.0,29.70,West,266,3.0,6.0,65,0.00,,,0.17,67,weatherlink.com 1.10,2013-06-30 01:10:00,
2013-06-29 19:25:00,55.2,44.0,29.70,West,270,1.0,5.0,66,0.00,,,0.17,74,weatherlink.com 1.10,2013-06-30 01:25:00,
2013-06-29 19:40:00,54.9,44.0,29.70,ESE,111,2.0,4.0,67,0.00,,,0.17,42,weatherlink.com 1.10,2013-06-30 01:40:00,
2013-06-29 19:55:00,54.1,45.0,29.70,SW,226,2.0,3.0,70,0.00,,,0.17,25,weatherlink.com 1.10,2013-06-30 01:55:00,
2013-06-29 20:10:00,53.3,44.0,29.71,WSW,258,0.0,4.0,70,0.00,,,0.17,16,weatherlink.com 1.10,2013-06-30 02:10:00,
2013-06-29 20:25:00,52.5,44.0,29.71,South,180,1.0,4.0,73,0.00,,,0.17,7,weatherlink.com 1.10,2013-06-30 02:25:00,
2013-06-29 20:40:00,51.6,43.0,29.71,SSE,166,0.0,4.0,73,0.00,,,0.17,0,weatherlink.com 1.10,2013-06-30 02:40:00,
2013-06-29 20:55:00,51.1,41.0,29.72,WSW,238,0.0,4.0,69,0.00,,,0.17,0,weatherlink.com 1.10,2013-06-30 02:55:00,
2013-06-29 21:10:00,51.3,41.0,29.72,SW,217,0.0,3.0,69,0.00,,,0.17,0,weatherlink.com 1.10,2013-06-30 03:10:00,
2013-06-29 21:25:00,49.5,41.0,29.72,SW,217,0.0,1.0,72,0.00,,,0.17,0,weatherlink.com 1.10,2013-06-30 03:25:00,
2013-06-29 21:40:00,49.6,40.0,29.72,SW,217,0.0,1.0,70,0.00,,,0.17,0,weatherlink.com 1.10,2013-06-30 03:40:00,
2013-06-29 21:55:00,49.3,40.0,29.73,SW,217,0.0,0.0,70,0.00,,,0.17,0,weatherlink.com 1.10,2013-06-30 03:55:00,
2013-06-29 22:10:00,49.7,39.0,29.74,SW,217,0.0,1.0,68,0.00,,,0.17,0,weatherlink.com 1.10,2013-06-30 04:10:00,
2013-06-29 22:25:00,48.8,39.0,29.74,SW,217,0.0,0.0,68,0.00,,,0.17,0,weatherlink.com 1.10,2013-06-30 04:25:00,
2013-06-29 22:40:00,49.6,39.0,29.74,SSW,213,1.0,2.0,66,0.00,,,0.17,0,weatherlink.com 1.10,2013-06-30 04:40:00,
2013-06-29 22:55:00,49.9,39.0,29.75,SSW,213,0.0,2.0,66,0.00,,,0.17,0,weatherlink.com 1.10,2013-06-30 04:55:00,
2013-06-29 23:10:00,47.4,38.0,29.74,SSW,213,0.0,2.0,71,0.00,,,0.17,0,weatherlink.com 1.10,2013-06-30 05:10:00,
2013-06-29 23:25:00,47.4,38.0,29.75,SSW,213,1.0,1.0,71,0.00,,,0.17,0,weatherlink.com 1.10,2013-06-30 05:25:00,
2013-06-29 23:41:00,46.7,38.0,29.75,SE,137,0.0,4.0,72,0.00,,,0.17,0,weatherlink.com 1.10,2013-06-30 05:41:00,
2013-06-29 23:56:00,48.4,38.0,29.75,SW,231,2.0,2.0,67,0.00,,,0.17,0,weatherlink.com 1.10,2013-06-30 05:56:00,